createdAt,value
2023-01-19T00:02:19.925Z,-0.30
2023-01-19T00:05:24.153Z,-0.40
2023-01-19T00:08:28.590Z,-0.40
2023-01-19T00:11:34.160Z,-0.50
2023-01-19T00:14:38.700Z,-0.50
2023-01-19T00:17:43.103Z,-0.60
2023-01-19T00:20:48.665Z,-0.60
2023-01-19T00:23:53.056Z,-0.50
2023-01-19T00:26:57.693Z,-0.50
2023-01-19T00:30:02.711Z,-0.40
2023-01-19T00:33:07.399Z,-0.40
2023-01-19T00:36:11.599Z,-0.40
2023-01-19T00:39:16.378Z,-0.40
2023-01-19T00:42:39.276Z,-0.30
2023-01-19T00:45:44.996Z,-0.40
2023-01-19T00:48:49.488Z,-0.30
2023-01-19T00:51:53.823Z,-0.40
2023-01-19T00:55:00.370Z,-0.40
2023-01-19T00:58:04.823Z,-0.40
2023-01-19T01:01:09.778Z,-0.40
2023-01-19T01:04:15.518Z,-0.40
2023-01-19T01:07:19.702Z,-0.50
2023-01-19T01:10:27.346Z,-0.50
2023-01-19T01:13:32.432Z,-0.50
2023-01-19T01:16:36.878Z,-0.40
2023-01-19T01:19:41.713Z,-0.40
2023-01-19T01:22:51.702Z,-0.40
2023-01-19T01:25:56.320Z,-0.40
2023-01-19T01:29:00.741Z,-0.40
2023-01-19T01:32:05.378Z,-0.50
2023-01-19T01:35:10.916Z,-0.60
2023-01-19T01:38:15.847Z,-0.50
2023-01-19T01:41:21.829Z,-0.50
2023-01-19T01:44:49.726Z,-0.50
2023-01-19T01:47:56.417Z,-0.50
2023-01-19T01:51:24.323Z,-0.50
2023-01-19T01:54:33.688Z,-0.40
2023-01-19T01:57:41.891Z,-0.40
2023-01-19T02:01:05.117Z,-0.40
2023-01-19T02:04:09.589Z,-0.50
2023-01-19T02:07:37.298Z,-0.50
2023-01-19T02:11:01.723Z,-0.40
2023-01-19T02:14:06.942Z,-0.30
2023-01-19T02:17:11.632Z,-0.20
2023-01-19T02:20:16.647Z,-0.10
2023-01-19T02:23:36.889Z,-0.10
2023-01-19T02:26:51.778Z,0.00
2023-01-19T02:29:56.071Z,0.10
2023-01-19T02:33:01.239Z,0.10
2023-01-19T02:36:08.191Z,0.00
2023-01-19T02:39:14.140Z,0.10
2023-01-19T02:42:30.207Z,0.20
2023-01-19T02:45:35.921Z,0.20
2023-01-19T02:48:40.312Z,0.10
2023-01-19T02:51:44.718Z,0.30
2023-01-19T02:55:15.305Z,0.20
2023-01-19T02:58:53.676Z,0.20
2023-01-19T03:02:08.859Z,0.20
2023-01-19T03:05:20.040Z,0.30
2023-01-19T03:08:39.920Z,0.30
2023-01-19T03:11:51.911Z,0.30
2023-01-19T03:15:03.535Z,0.30
2023-01-19T03:18:12.237Z,0.30
2023-01-19T03:21:19.550Z,0.20
2023-01-19T03:24:28.226Z,0.10
2023-01-19T03:27:42.399Z,0.10
2023-01-19T03:30:55.521Z,0.10
2023-01-19T03:34:06.763Z,0.10
2023-01-19T03:37:13.934Z,0.10
2023-01-19T03:40:18.182Z,0.00
2023-01-19T03:43:23.478Z,0.00
2023-01-19T03:46:28.556Z,0.20
2023-01-19T03:49:35.180Z,0.10
2023-01-19T03:52:39.865Z,0.10
2023-01-19T03:55:47.353Z,0.10
2023-01-19T03:58:52.187Z,0.10
2023-01-19T04:01:56.394Z,0.00
2023-01-19T04:05:00.875Z,-0.10
2023-01-19T04:08:05.942Z,0.10
2023-01-19T04:11:10.487Z,0.10
2023-01-19T04:14:14.859Z,0.10
2023-01-19T04:17:19.157Z,0.10
2023-01-19T04:20:23.537Z,0.30
2023-01-19T04:23:28.309Z,0.60
2023-01-19T04:26:33.176Z,0.50
2023-01-19T04:29:37.399Z,0.70
2023-01-19T04:32:41.699Z,0.90
2023-01-19T04:35:47.093Z,1.00
2023-01-19T04:38:51.325Z,1.20
2023-01-19T04:41:57.463Z,1.20
2023-01-19T04:45:02.137Z,1.20
2023-01-19T04:48:06.739Z,1.40
2023-01-19T04:51:11.819Z,1.40
2023-01-19T04:54:16.234Z,1.30
2023-01-19T04:57:20.611Z,1.40
2023-01-19T05:00:26.735Z,1.40
2023-01-19T05:03:31.520Z,1.40
2023-01-19T05:06:35.951Z,1.50
2023-01-19T05:09:40.651Z,1.50
2023-01-19T05:12:44.947Z,1.60
2023-01-19T05:15:50.421Z,1.50
2023-01-19T05:18:54.628Z,1.50
2023-01-19T05:21:59.391Z,1.50
2023-01-19T05:25:04.079Z,1.30
2023-01-19T05:28:09.849Z,1.40
2023-01-19T05:31:14.369Z,1.40
2023-01-19T05:34:19.230Z,1.40
2023-01-19T05:37:23.528Z,1.50
2023-01-19T05:40:28.648Z,1.40
2023-01-19T05:43:33.038Z,1.40
2023-01-19T05:46:37.993Z,1.40
2023-01-19T05:49:42.286Z,1.50
2023-01-19T05:52:47.129Z,1.40
2023-01-19T05:55:51.760Z,1.40
2023-01-19T05:58:56.287Z,1.50
2023-01-19T06:02:01.094Z,1.50
2023-01-19T06:05:05.903Z,1.40
2023-01-19T06:08:10.515Z,1.60
2023-01-19T06:11:15.020Z,1.60
2023-01-19T06:14:21.092Z,1.60
2023-01-19T06:17:25.741Z,1.70
2023-01-19T06:20:30.204Z,1.70
2023-01-19T06:23:35.960Z,1.70
2023-01-19T06:26:40.340Z,1.70
2023-01-19T06:29:44.879Z,1.70
2023-01-19T06:32:49.552Z,1.80
2023-01-19T06:35:54.045Z,1.80
2023-01-19T06:38:58.112Z,1.80
2023-01-19T06:42:02.436Z,1.80
2023-01-19T06:45:09.123Z,1.90
2023-01-19T06:48:13.654Z,1.90
2023-01-19T06:51:18.203Z,1.80
2023-01-19T06:54:22.573Z,1.80
2023-01-19T06:57:26.888Z,1.80
2023-01-19T07:00:31.665Z,1.80
2023-01-19T07:03:37.960Z,1.90
2023-01-19T07:06:42.714Z,1.80
2023-01-19T07:09:47.405Z,1.80
2023-01-19T07:12:53.311Z,1.80
2023-01-19T07:15:57.810Z,1.80
2023-01-19T07:19:02.700Z,1.90
2023-01-19T07:22:07.274Z,1.80
2023-01-19T07:25:12.409Z,1.80
2023-01-19T07:28:17.229Z,1.80
2023-01-19T07:31:22.045Z,1.70
2023-01-19T07:34:26.807Z,1.70
2023-01-19T07:37:31.256Z,1.70
2023-01-19T07:40:35.683Z,1.70
2023-01-19T07:43:40.488Z,1.70
2023-01-19T07:46:44.880Z,1.70
2023-01-19T07:49:49.305Z,1.70
2023-01-19T07:52:53.736Z,1.70
2023-01-19T07:55:58.682Z,1.70
2023-01-19T07:59:03.829Z,1.60
2023-01-19T08:02:10.576Z,1.70
2023-01-19T08:05:15.809Z,1.70
2023-01-19T08:08:20.430Z,1.70
2023-01-19T08:11:26.137Z,1.70
2023-01-19T08:14:30.973Z,1.70
2023-01-19T08:17:35.599Z,1.70
2023-01-19T08:20:40.300Z,1.70
2023-01-19T08:23:45.552Z,1.70
2023-01-19T08:26:50.377Z,1.60
2023-01-19T08:29:54.682Z,1.60
2023-01-19T08:33:04.369Z,1.70
2023-01-19T08:36:09.059Z,1.70
2023-01-19T08:39:13.633Z,1.70
2023-01-19T08:42:18.094Z,1.70
2023-01-19T08:45:22.714Z,1.70
2023-01-19T08:48:27.042Z,1.80
2023-01-19T08:51:31.323Z,1.80
2023-01-19T08:54:35.999Z,1.70
2023-01-19T08:57:41.013Z,1.80
2023-01-19T09:00:45.538Z,1.70
2023-01-19T09:03:49.984Z,1.80
2023-01-19T09:06:54.293Z,1.80
2023-01-19T09:09:58.819Z,1.80
2023-01-19T09:13:08.289Z,1.80
2023-01-19T09:16:14.825Z,1.80
2023-01-19T09:19:19.285Z,1.80
2023-01-19T09:22:23.687Z,1.90
2023-01-19T09:25:28.410Z,1.90
2023-01-19T09:28:33.475Z,1.90
2023-01-19T09:31:40.168Z,1.90
2023-01-19T09:34:47.213Z,1.90
2023-01-19T09:37:51.857Z,2.00
2023-01-19T09:40:57.223Z,2.10
2023-01-19T09:44:01.645Z,2.00
2023-01-19T09:47:15.208Z,2.00
2023-01-19T09:50:40.042Z,2.00
2023-01-19T09:53:50.503Z,2.00
2023-01-19T09:56:55.129Z,2.00
2023-01-19T09:59:59.880Z,2.00
2023-01-19T10:03:16.748Z,2.00
2023-01-19T10:06:23.065Z,2.00
2023-01-19T10:09:37.672Z,2.00
2023-01-19T10:12:55.800Z,2.00
2023-01-19T10:16:35.024Z,2.00
2023-01-19T10:19:46.794Z,1.90
2023-01-19T10:22:51.574Z,2.00
2023-01-19T10:25:59.483Z,2.00
2023-01-19T10:29:24.199Z,2.00
2023-01-19T10:32:35.808Z,2.00
2023-01-19T10:35:40.237Z,2.00
2023-01-19T10:38:45.669Z,2.00
2023-01-19T10:41:52.522Z,2.00
2023-01-19T10:44:57.187Z,2.10
2023-01-19T10:48:07.508Z,2.10
2023-01-19T10:51:12.356Z,2.20
2023-01-19T10:54:17.402Z,2.20
2023-01-19T10:57:36.941Z,2.20
2023-01-19T11:00:43.688Z,2.20
2023-01-19T11:03:48.254Z,2.20
2023-01-19T11:06:52.435Z,2.20
2023-01-19T11:10:29.164Z,2.20
2023-01-19T11:13:35.661Z,2.20
2023-01-19T11:16:40.621Z,2.20
2023-01-19T11:19:57.906Z,2.30
2023-01-19T11:23:23.390Z,2.30
2023-01-19T11:26:45.058Z,2.30
2023-01-19T11:30:10.355Z,2.30
2023-01-19T11:33:24.767Z,2.30
2023-01-19T11:36:35.573Z,2.30
2023-01-19T11:39:54.963Z,2.30
2023-01-19T11:42:59.703Z,2.40
2023-01-19T11:46:04.569Z,2.40
2023-01-19T11:49:21.685Z,2.40
2023-01-19T11:52:31.305Z,2.40
2023-01-19T11:56:04.731Z,2.50
2023-01-19T11:59:12.546Z,2.50
2023-01-19T12:02:31.954Z,2.60
2023-01-19T12:05:40.538Z,2.70
2023-01-19T12:09:03.021Z,2.70
2023-01-19T12:12:16.147Z,2.70
2023-01-19T12:15:30.654Z,2.70
2023-01-19T12:18:59.717Z,2.70
2023-01-19T12:22:04.649Z,2.80
2023-01-19T12:25:20.756Z,2.80
2023-01-19T12:28:30.239Z,2.80
2023-01-19T12:31:35.103Z,2.80
2023-01-19T12:34:42.873Z,2.80
2023-01-19T12:37:46.958Z,2.80
2023-01-19T12:41:05.719Z,2.80
2023-01-19T12:44:14.080Z,2.90
2023-01-19T12:47:20.997Z,2.90
2023-01-19T12:50:26.723Z,2.90
2023-01-19T12:53:30.875Z,2.90
2023-01-19T12:56:37.890Z,3.00
2023-01-19T12:59:42.007Z,3.00
2023-01-19T13:03:01.272Z,2.90
2023-01-19T13:06:05.706Z,3.00
2023-01-19T13:09:32.464Z,3.00
2023-01-19T13:12:37.138Z,3.10
2023-01-19T13:15:42.566Z,3.10
2023-01-19T13:18:58.696Z,3.10
2023-01-19T13:22:42.000Z,3.10
2023-01-19T13:25:53.518Z,3.10
2023-01-19T13:29:26.581Z,3.10
2023-01-19T13:32:31.050Z,3.10
2023-01-19T13:35:35.504Z,3.10
2023-01-19T13:38:42.619Z,3.10
2023-01-19T13:41:49.243Z,3.20
2023-01-19T13:44:58.413Z,3.20
2023-01-19T13:48:06.737Z,3.20
2023-01-19T13:51:18.616Z,3.20
2023-01-19T13:54:25.933Z,3.30
2023-01-19T13:57:34.024Z,3.20
2023-01-19T14:00:38.491Z,3.30
2023-01-19T14:03:46.327Z,3.40
2023-01-19T14:06:55.446Z,3.30
2023-01-19T14:10:05.784Z,3.40
2023-01-19T14:13:13.231Z,3.40
2023-01-19T14:16:18.146Z,3.40
2023-01-19T14:19:22.805Z,3.40
2023-01-19T14:22:41.015Z,3.60
2023-01-19T14:25:46.015Z,3.50
2023-01-19T14:28:50.579Z,3.50
2023-01-19T14:32:15.682Z,3.50
2023-01-19T14:35:25.412Z,3.60
2023-01-19T14:38:29.758Z,3.60
2023-01-19T14:41:56.748Z,3.60
2023-01-19T14:45:04.207Z,3.60
2023-01-19T14:48:18.075Z,3.60
2023-01-19T14:51:26.463Z,3.60
2023-01-19T14:54:38.305Z,3.60
2023-01-19T14:57:42.727Z,3.60
2023-01-19T15:00:48.892Z,3.60
2023-01-19T15:03:53.285Z,3.60
2023-01-19T15:06:58.176Z,3.70
2023-01-19T15:10:03.352Z,3.60
2023-01-19T15:13:15.943Z,3.60
2023-01-19T15:16:21.003Z,3.60
2023-01-19T15:19:25.611Z,3.60
2023-01-19T15:22:30.053Z,3.60
2023-01-19T15:25:34.259Z,3.70
2023-01-19T15:28:38.707Z,3.60
2023-01-19T15:31:43.321Z,3.70
2023-01-19T15:34:47.750Z,3.60
2023-01-19T15:37:52.804Z,3.60
2023-01-19T15:40:57.573Z,3.60
2023-01-19T15:44:01.851Z,3.70
2023-01-19T15:47:06.607Z,3.60
2023-01-19T15:50:11.493Z,3.60
2023-01-19T15:53:18.757Z,3.60
2023-01-19T15:56:28.872Z,3.70
2023-01-19T15:59:33.771Z,3.70
2023-01-19T16:02:38.299Z,3.60
2023-01-19T16:05:43.692Z,3.70
2023-01-19T16:08:48.242Z,3.70
2023-01-19T16:11:56.999Z,3.70
2023-01-19T16:15:17.948Z,3.70
2023-01-19T16:18:21.945Z,3.70
2023-01-19T16:21:26.367Z,3.70
2023-01-19T16:24:31.798Z,3.70
2023-01-19T16:27:36.470Z,3.70
2023-01-19T16:30:40.850Z,3.70
2023-01-19T16:33:45.854Z,3.80
2023-01-19T16:36:50.415Z,3.80
2023-01-19T16:39:55.227Z,3.80
2023-01-19T16:43:01.737Z,3.80
2023-01-19T16:46:06.531Z,3.80
2023-01-19T16:49:20.047Z,3.80
2023-01-19T16:52:25.819Z,3.80
2023-01-19T16:55:30.428Z,3.80
2023-01-19T16:58:38.191Z,3.80
2023-01-19T17:01:44.956Z,3.80
2023-01-19T17:04:49.405Z,3.80
2023-01-19T17:07:53.786Z,3.80
2023-01-19T17:10:58.483Z,3.70
2023-01-19T17:14:06.259Z,3.70
2023-01-19T17:17:10.759Z,3.70
2023-01-19T17:20:15.402Z,3.70
2023-01-19T17:23:20.167Z,3.80
2023-01-19T17:26:28.141Z,3.80
2023-01-19T17:29:32.339Z,3.80
2023-01-19T17:32:36.905Z,3.80
2023-01-19T17:35:43.232Z,3.80
2023-01-19T17:38:51.418Z,3.80
2023-01-19T17:41:55.833Z,3.80
2023-01-19T17:45:00.000Z,3.70
2023-01-19T17:48:05.348Z,3.80
2023-01-19T17:51:13.848Z,3.80
2023-01-19T17:54:18.325Z,3.80
2023-01-19T17:57:22.718Z,3.80
2023-01-19T18:00:27.333Z,3.70
2023-01-19T18:03:31.621Z,3.80
2023-01-19T18:06:37.003Z,3.80
2023-01-19T18:09:41.822Z,3.80
2023-01-19T18:12:46.217Z,3.80
2023-01-19T18:15:50.889Z,3.80
2023-01-19T18:18:56.408Z,3.80
2023-01-19T18:22:01.350Z,3.80
2023-01-19T18:25:06.121Z,3.90
2023-01-19T18:28:10.941Z,3.90
2023-01-19T18:31:18.791Z,3.90
2023-01-19T18:34:23.572Z,3.90
2023-01-19T18:37:28.117Z,3.90
2023-01-19T18:40:32.480Z,3.90
2023-01-19T18:43:37.102Z,3.90
2023-01-19T18:46:41.931Z,3.90
2023-01-19T18:49:46.327Z,3.80
2023-01-19T18:52:52.535Z,3.80
2023-01-19T18:55:58.530Z,3.80
2023-01-19T18:59:02.777Z,3.80
2023-01-19T19:02:09.287Z,3.80
2023-01-19T19:05:13.793Z,3.80
2023-01-19T19:08:18.511Z,3.90
2023-01-19T19:11:24.832Z,3.90
2023-01-19T19:14:28.914Z,3.80
2023-01-19T19:17:35.751Z,3.90
2023-01-19T19:20:42.024Z,3.90
2023-01-19T19:23:54.421Z,3.90
2023-01-19T19:26:59.070Z,3.80
2023-01-19T19:30:04.018Z,3.80
2023-01-19T19:33:08.550Z,3.90
2023-01-19T19:36:12.874Z,3.80
2023-01-19T19:39:17.663Z,3.90
2023-01-19T19:42:22.422Z,3.90
2023-01-19T19:45:27.005Z,3.90
2023-01-19T19:48:31.398Z,4.00
2023-01-19T19:51:35.556Z,4.00
2023-01-19T19:54:40.470Z,4.00
2023-01-19T19:57:44.723Z,4.10
2023-01-19T20:00:49.324Z,4.00
2023-01-19T20:03:53.625Z,4.00
2023-01-19T20:07:00.025Z,4.00
2023-01-19T20:10:04.790Z,4.00
2023-01-19T20:13:09.298Z,4.00
2023-01-19T20:16:16.871Z,4.00
2023-01-19T20:19:21.144Z,4.00
2023-01-19T20:22:25.601Z,4.10
2023-01-19T20:25:29.909Z,4.10
2023-01-19T20:28:35.565Z,4.10
2023-01-19T20:31:50.296Z,4.00
2023-01-19T20:34:54.744Z,4.10
2023-01-19T20:37:59.187Z,4.00
2023-01-19T20:41:03.989Z,4.00
2023-01-19T20:44:09.162Z,3.90
2023-01-19T20:47:13.387Z,3.90
2023-01-19T20:50:18.229Z,3.90
2023-01-19T20:53:22.681Z,4.00
2023-01-19T20:56:27.074Z,4.00
2023-01-19T20:59:34.053Z,3.90
2023-01-19T21:02:38.143Z,3.70
2023-01-19T21:05:42.877Z,3.40
2023-01-19T21:08:50.061Z,3.40
2023-01-19T21:11:56.512Z,3.50
2023-01-19T21:15:01.640Z,3.50
2023-01-19T21:18:07.265Z,3.60
2023-01-19T21:21:28.453Z,3.60
2023-01-19T21:24:34.184Z,3.70
2023-01-19T21:27:38.643Z,4.00
2023-01-19T21:30:43.445Z,4.00
2023-01-19T21:33:49.231Z,4.10
2023-01-19T21:36:53.164Z,4.00
2023-01-19T21:39:57.582Z,4.00
2023-01-19T21:43:02.269Z,4.10
2023-01-19T21:46:10.626Z,4.10
2023-01-19T21:49:19.990Z,4.10
2023-01-19T21:52:24.666Z,4.00
2023-01-19T21:55:29.707Z,4.10
2023-01-19T21:58:34.207Z,4.10
2023-01-19T22:01:38.889Z,4.10
2023-01-19T22:04:43.332Z,4.00
2023-01-19T22:07:48.553Z,4.10
2023-01-19T22:10:53.035Z,4.00
2023-01-19T22:13:59.679Z,4.00
2023-01-19T22:17:04.978Z,4.00
2023-01-19T22:20:10.067Z,4.10
2023-01-19T22:23:15.238Z,4.00
2023-01-19T22:26:20.363Z,3.90
2023-01-19T22:29:25.070Z,3.80
2023-01-19T22:32:29.454Z,3.80
2023-01-19T22:35:34.001Z,3.70
2023-01-19T22:38:40.042Z,3.60
2023-01-19T22:41:46.228Z,3.60
2023-01-19T22:44:50.475Z,3.50
2023-01-19T22:47:54.802Z,3.60
2023-01-19T22:50:59.119Z,3.50
2023-01-19T22:54:04.592Z,3.50
2023-01-19T22:57:11.787Z,3.60
2023-01-19T23:00:16.480Z,3.60
2023-01-19T23:03:20.931Z,3.50
2023-01-19T23:06:28.636Z,3.50
2023-01-19T23:09:34.180Z,3.50
2023-01-19T23:12:38.408Z,3.60
2023-01-19T23:15:42.775Z,3.60
2023-01-19T23:18:48.072Z,3.50
2023-01-19T23:21:52.905Z,3.60
2023-01-19T23:24:57.241Z,3.60
2023-01-19T23:28:01.614Z,3.60
2023-01-19T23:31:27.093Z,3.60
2023-01-19T23:34:31.126Z,3.70
2023-01-19T23:37:35.786Z,3.70
2023-01-19T23:40:40.334Z,3.60
2023-01-19T23:43:45.165Z,3.70
2023-01-19T23:46:49.399Z,3.70
2023-01-19T23:49:53.869Z,3.70
2023-01-19T23:52:58.114Z,3.70
2023-01-19T23:56:30.473Z,3.60
2023-01-19T23:59:34.576Z,3.70
